Latest Weather Observations for Wynyard

IDT60801

Issued at 2:32 pm EDT Friday 19 January 2018 (issued every 30 minutes, with the page automatically refreshed every 10 minutes)

About weather observations | Map of weather stations | Latest weather observations for TAS | Other Formats
Station Details ID: 091107 Name: WYNYARD AIRPORT Lat: -41.00 Lon: 145.73 Height: 12.0 m
Data from the previous 72 hours. | See also: Recent months at Wynyard
Date/Time
EDT
Temp
°C
App
Temp
°C
Dew
Point
°C
Rel
Hum
%
Delta-T
°C
Wind Press
QNH
hPa
Press
MSL
hPa
Rain since
9am
mm
Dir  Spd
km/h
Gust
km/h
Spd
kts
Gust
kts
19/02:30pm 30.9 30.6 16.5 42 9.1 NNW 13 20 7 11 1008.3 1008.3 0.0
19/02:00pm 33.4 30.1 12.9 28 12.3 W 22 33 12 18 1008.3 1008.3 0.0
19/01:30pm 32.5 31.3 15.1 35 10.8 NW 15 22 8 12 1008.4 1008.4 0.0
19/01:00pm 31.4 29.6 15.4 38 9.9 NW 19 24 10 13 1008.5 1008.5 0.0
19/12:30pm 31.0 29.3 16.2 41 9.2 NNW 20 26 11 14 1008.7 1008.7 0.0
19/12:00pm 29.6 29.1 16.8 46 8.0 NNW 15 20 8 11 1009.0 1009.0 0.0
19/11:30am 28.5 26.8 15.8 46 7.8 NNW 19 22 10 12 1009.3 1009.3 0.0
19/11:00am 26.6 26.2 16.2 52 6.4 NNE 13 17 7 9 1009.1 1009.1 0.0
19/10:30am 24.9 24.5 16.1 58 5.4 NNE 13 19 7 10 1009.1 1009.1 0.0
19/10:00am 26.4 25.2 13.9 46 7.4 W 13 22 7 12 1009.5 1009.5 0.0
19/09:30am 25.1 24.6 14.9 53 6.1 W 11 19 6 10 1009.5 1009.5 0.0
19/09:00am 22.7 22.2 14.8 61 4.7 WNW 11 13 6 7 1009.7 1009.7 0.0
19/08:30am 19.0 18.2 14.1 73 2.8 NW 11 13 6 7 1009.7 1009.7 0.0
19/08:00am 17.1 16.9 13.6 80 2.0 WNW 7 11 4 6 1009.5 1009.5 0.0
19/07:30am 14.5 12.7 12.0 85 1.4 WNW 13 15 7 8 1009.6 1009.6 0.0
19/07:00am 13.5 12.2 11.4 87 1.1 WNW 9 13 5 7 1009.2 1009.2 0.0
19/06:30am 12.4 10.3 11.0 91 0.7 WNW 13 13 7 7 1009.2 1009.2 0.0
19/06:00am 11.8 10.3 10.4 91 0.7 WNW 9 11 5 6 1008.8 1008.8 0.0
19/05:30am 11.8 9.1 10.5 92 0.7 WNW 15 17 8 9 1008.8 1008.8 0.0
19/05:00am 11.2 9.2 10.0 92 0.6 W 11 13 6 7 1008.2 1008.2 0.0
19/04:30am 11.9 10.0 10.6 92 0.7 WNW 11 13 6 7 1008.5 1008.5 0.0
19/04:00am 11.8 10.3 10.7 93 0.6 WNW 9 11 5 6 1008.6 1008.6 0.0
19/03:30am 12.0 10.7 11.2 95 0.4 W 9 11 5 6 1008.9 1008.9 0.0
19/03:00am 12.3 11.0 11.2 93 0.6 W 9 11 5 6 1009.0 1009.0 0.0
19/02:30am 13.1 12.6 12.5 96 0.3 W 7 9 4 5 1009.3 1009.3 0.0
19/02:00am 13.5 13.3 12.9 96 0.3 W 6 9 3 5 1009.7 1009.7 0.0
19/01:30am 13.7 13.5 12.9 95 0.4 W 6 7 3 4 1010.1 1010.1 0.0
19/01:00am 14.8 15.3 14.0 95 0.5 SW 4 7 2 4 1010.3 1010.3 0.0
19/12:30am 14.4 13.6 13.0 91 0.8 W 9 11 5 6 1010.6 1010.6 0.0
19/12:00am 15.6 15.7 14.5 93 0.6 SW 7 7 4 4 1010.5 1010.5 0.0
 
Date/Time
EDT
Temp
°C
App
Temp
°C
Dew
Point
°C
Rel
Hum
%
Delta-T
°C
Wind Press
QNH
hPa
Press
MSL
hPa
Rain since
9am
mm
Dir  Spd
km/h
Gust
km/h
Spd
kts
Gust
kts
18/11:30pm 15.7 15.9 14.6 93 0.6 SSW 7 11 4 6 1010.7 1010.7 0.0
18/11:00pm 17.2 18.0 16.4 95 0.5 SSE 7 17 4 9 1011.0 1011.0 0.0
18/10:30pm 17.7 17.7 17.1 96 0.4 ESE 13 15 7 8 1011.1 1011.1 0.0
18/10:00pm 17.1 18.0 16.1 94 0.6 E 6 7 3 4 1011.2 1011.2 0.0
18/09:30pm 17.3 18.0 16.0 92 0.8 ESE 7 9 4 5 1010.8 1010.8 0.0
18/09:00pm 17.8 18.5 16.1 90 1.0 ESE 7 11 4 6 1010.8 1010.8 0.0
18/08:30pm 18.8 19.6 16.4 86 1.4 E 7 9 4 5 1011.1 1011.1 0.0
18/08:00pm 19.5 20.4 16.5 83 1.8 E 7 11 4 6 1011.1 1011.1 0.0
18/07:30pm 19.9 20.3 16.3 80 2.2 E 9 13 5 7 1011.0 1011.0 0.0
18/07:00pm 20.3 20.3 16.3 78 2.4 E 11 15 6 8 1011.0 1011.0 0.0
18/06:30pm 20.3 20.2 16.1 77 2.5 ENE 11 15 6 8 1011.2 1011.2 0.0
18/06:00pm 20.9 20.8 15.9 73 3.0 ENE 11 17 6 9 1011.5 1011.5 0.0
18/05:30pm 21.0 20.5 15.8 72 3.1 E 13 19 7 10 1011.8 1011.8 0.0
18/05:00pm 21.7 21.4 16.4 72 3.2 E 13 19 7 10 1012.1 1012.1 0.0
18/04:30pm 20.6 19.1 15.2 71 3.2 ENE 17 20 9 11 1012.6 1012.6 0.0
18/04:00pm 21.3 20.4 15.8 71 3.3 E 15 20 8 11 1012.9 1012.9 0.0
18/03:30pm 21.7 20.9 16.0 70 3.4 ENE 15 24 8 13 1013.4 1013.4 0.0
18/03:00pm 20.8 19.9 15.8 73 3.0 E 15 22 8 12 1013.7 1013.7 0.0
18/02:30pm 20.6 18.7 15.2 71 3.2 E 19 28 10 15 1013.8 1013.8 0.0
18/02:00pm 20.5 18.7 15.5 73 3.0 ENE 19 24 10 13 1014.1 1014.1 0.0
18/01:30pm 20.9 19.4 15.4 71 3.3 E 17 26 9 14 1014.4 1014.4 0.0
18/01:00pm 21.3 19.0 14.2 64 4.1 ENE 19 28 10 15 1014.8 1014.8 0.0
18/12:30pm 21.5 19.6 15.1 67 3.8 ENE 19 24 10 13 1015.1 1015.1 0.0
18/12:00pm 20.4 18.1 14.1 67 3.6 ENE 19 28 10 15 1015.3 1015.3 0.0
18/11:30am 20.1 18.0 13.6 66 3.7 E 17 24 9 13 1015.6 1015.6 0.0
18/11:00am 19.9 17.4 14.0 69 3.4 ENE 20 26 11 14 1015.7 1015.7 0.0
18/10:30am 20.0 17.9 14.6 71 3.1 ENE 19 28 10 15 1015.9 1015.9 0.0
18/10:00am 20.1 18.3 14.5 70 3.3 E 17 24 9 13 1016.3 1016.3 0.0
18/09:30am 19.0 17.1 14.3 74 2.7 ENE 17 26 9 14 1016.4 1016.4 0.0
18/09:13am 19.0 16.9 14.7 76 2.5 E 19 30 10 16 1016.3 1016.3 0.0
18/09:00am 18.5 16.3 14.4 77 2.4 E 19 28 10 15 1016.6 1016.6 0.0
18/08:41am 17.7 15.9 14.4 81 1.9 ESE 17 22 9 12 1016.6 1016.6 0.0
18/08:30am 17.8 16.1 14.7 82 1.8 ESE 17 26 9 14 1016.5 1016.5 0.0
18/08:00am 15.7 16.0 13.5 87 1.2 W 4 9 2 5 1016.4 1016.4 0.0
18/07:30am 13.8 14.5 12.2 90 0.9 CALM 0 4 0 2 1016.1 1016.1 0.0
18/07:00am 14.0 14.1 12.7 92 0.7 SE 4 11 2 6 1016.0 1016.0 0.0
18/06:30am 13.1 11.5 11.7 91 0.7 SSE 11 13 6 7 1016.1 1016.1 0.0
18/06:00am 13.6 12.0 12.7 94 0.5 SSE 13 17 7 9 1016.1 1016.1 0.0
18/05:50am 13.5 11.9 12.9 96 0.3 SE 13 17 7 9 1016.1 1016.1 0.0
18/05:30am 12.5 13.0 11.7 95 0.4 CALM 0 7 0 4 1016.2 1016.2 0.0
18/05:00am 10.8 9.5 9.9 94 0.5 SW 7 9 4 5 1016.1 1016.1 0.0
18/04:30am 11.6 10.7 10.5 93 0.6 W 6 6 3 3 1015.8 1015.8 0.0
18/04:26am 11.3 10.3 10.2 93 0.6 W 6 6 3 3 1015.9 1015.9 0.0
18/04:00am 12.0 11.6 11.1 94 0.5 SW 4 7 2 4 1016.1 1016.1 0.0
18/03:30am 11.9 11.9 11.0 94 0.5 SSW 2 6 1 3 1016.2 1016.2 0.0
18/03:00am 11.7 10.6 10.6 93 0.6 W 7 7 4 4 1016.4 1016.4 0.0
18/02:30am 12.7 13.4 12.1 96 0.3 CALM 0 7 0 4 1016.6 1016.6 0.0
18/02:00am 11.2 10.3 10.6 96 0.3 SW 6 9 3 5 1017.1 1017.0 0.0
18/01:57am 11.0 10.0 10.4 96 0.3 SW 6 9 3 5 1017.1 1017.0 0.0
18/01:53am 10.8 9.5 10.0 95 0.4 WSW 7 9 4 5 1017.1 1017.0 0.0
18/01:33am 10.9 9.8 10.1 95 0.4 SW 6 7 3 4 1017.0 1016.9 0.0
18/01:30am 9.9 8.4 9.0 94 0.4 SW 7 9 4 5 1017.0 1016.9 0.0
18/01:00am 10.2 8.3 9.1 93 0.5 SW 9 9 5 5 1017.1 1017.0 0.0
18/12:30am 11.8 12.0 10.7 93 0.6 CALM 0 4 0 2 1017.1 1017.0 0.0
18/12:00am 11.5 11.5 9.9 90 0.8 CALM 0 0 0 0 1016.7 1016.7 0.0
 
Date/Time
EDT
Temp
°C
App
Temp
°C
Dew
Point
°C
Rel
Hum
%
Delta-T
°C
Wind Press
QNH
hPa
Press
MSL
hPa
Rain since
9am
mm
Dir  Spd
km/h
Gust
km/h
Spd
kts
Gust
kts
17/11:30pm 12.9 12.2 11.3 90 0.8 S 6 9 3 5 1017.0 1016.9 0.0
17/11:00pm 13.3 12.5 11.2 87 1.1 S 6 9 3 5 1017.1 1017.0 0.0
17/10:30pm 14.6 13.3 11.4 81 1.7 WSW 9 11 5 6 1017.0 1016.9 0.0
17/10:00pm 16.3 14.5 12.1 76 2.3 WNW 13 20 7 11 1016.8 1016.8 0.0
17/09:30pm 16.4 14.2 12.2 76 2.3 WNW 15 19 8 10 1016.5 1016.5 0.0
17/09:00pm 18.0 16.4 12.7 71 3.0 NW 13 17 7 9 1016.6 1016.6 0.0
17/08:30pm 18.8 17.1 12.3 66 3.6 NW 13 19 7 10 1016.4 1016.4 0.0
17/08:00pm 19.6 17.1 12.4 63 4.0 NW 17 22 9 12 1016.3 1016.3 0.0
17/07:30pm 20.4 17.4 12.4 60 4.5 NW 20 26 11 14 1016.1 1016.1 0.0
17/07:00pm 20.3 16.7 13.0 63 4.1 NW 24 30 13 16 1015.9 1015.9 0.0
17/06:30pm 21.3 17.1 12.4 57 5.0 NW 26 35 14 19 1016.0 1016.0 0.0
17/06:00pm 20.9 15.9 12.1 57 4.9 NW 30 41 16 22 1016.0 1016.0 0.0
17/05:30pm 21.4 16.9 12.5 57 5.0 NW 28 37 15 20 1016.3 1016.3 0.0
17/05:00pm 21.4 16.7 12.0 55 5.3 NW 28 37 15 20 1016.8 1016.8 0.0
17/04:30pm 21.5 16.5 12.1 55 5.3 NNW 30 43 16 23 1017.1 1017.0 0.0
17/04:00pm 21.1 15.8 11.2 53 5.5 NNW 30 39 16 21 1017.3 1017.2 0.0
17/03:30pm 21.2 17.2 11.8 55 5.2 NW 24 33 13 18 1017.6 1017.5 0.0
17/03:00pm 22.1 18.8 14.0 60 4.7 NW 24 33 13 18 1017.9 1017.8 0.0
17/02:30pm 20.7 16.5 13.4 63 4.2 NNW 28 37 15 20 1018.2 1018.1 0.0
17/02:00pm 20.8 16.7 12.8 60 4.5 NNW 26 33 14 18 1018.4 1018.3 0.0
17/01:30pm 21.1 17.6 13.3 61 4.5 NNW 24 32 13 17 1018.6 1018.5 0.0
17/01:00pm 20.8 17.7 13.5 63 4.2 NNW 22 30 12 16 1018.8 1018.7 0.0
17/12:30pm 21.0 17.9 13.4 62 4.4 NNW 22 32 12 17 1019.1 1019.0 0.0
17/12:00pm 21.3 18.0 14.9 67 3.8 NNW 26 33 14 18 1019.4 1019.3 0.0
17/11:30am 20.3 17.3 13.7 66 3.8 NNW 22 32 12 17 1019.7 1019.6 0.0
17/11:00am 20.0 17.4 13.2 65 3.9 NNW 19 24 10 13 1020.0 1019.9 0.0
17/10:30am 20.3 18.6 13.7 66 3.8 WNW 15 24 8 13 1020.3 1020.2 0.0
17/10:00am 18.8 17.4 12.3 66 3.6 WNW 11 20 6 11 1020.7 1020.6 0.0
17/09:30am 18.2 16.2 12.6 70 3.1 W 15 19 8 10 1020.9 1020.8 0.0
17/09:00am 17.5 16.9 12.4 72 2.8 WNW 7 13 4 7 1021.1 1021.0 0.0
17/08:30am 17.3 17.2 13.4 78 2.2 W 6 13 3 7 1021.0 1020.9 0.0
17/08:00am 15.8 15.6 13.1 84 1.5 WSW 6 7 3 4 1020.9 1020.8 0.0
17/07:30am 15.0 14.5 12.7 86 1.3 WNW 7 9 4 5 1020.6 1020.5 0.0
17/07:00am 14.3 13.7 12.3 88 1.1 W 7 9 4 5 1020.6 1020.5 0.0
17/06:30am 14.0 13.0 12.2 89 1.0 WNW 9 11 5 6 1020.5 1020.4 0.0
17/06:00am 14.0 13.4 12.2 89 1.0 W 7 9 4 5 1020.3 1020.2 0.0
17/05:30am 13.7 12.6 12.1 90 0.9 W 9 9 5 5 1020.2 1020.1 0.0
17/05:00am 13.6 12.5 12.0 90 0.9 WNW 9 11 5 6 1020.1 1020.0 0.0
17/04:30am 13.2 12.1 11.9 92 0.7 W 9 9 5 5 1020.1 1020.0 0.0
17/04:00am 13.2 12.5 11.9 92 0.7 W 7 9 4 5 1020.2 1020.1 0.0
17/03:30am 12.5 11.2 11.4 93 0.6 W 9 9 5 5 1020.2 1020.1 0.0
17/03:28am 12.2 10.8 10.9 92 0.7 W 9 9 5 5 1020.2 1020.1 0.0
17/03:00am 13.0 12.5 12.1 94 0.5 W 6 7 3 4 1020.4 1020.3 0.0
17/02:39am 12.2 11.3 11.3 94 0.5 WSW 7 11 4 6 1020.9 1020.8 0.0
17/02:30am 12.0 10.6 10.9 93 0.6 SW 9 11 5 6 1021.0 1020.9 0.0
17/02:00am 12.2 11.4 10.9 92 0.7 SW 6 9 3 5 1021.2 1021.1 0.0
17/01:30am 12.6 12.1 10.8 89 0.9 SSE 4 7 2 4 1021.5 1021.4 0.0
17/01:00am 14.0 14.6 12.0 88 1.1 CALM 0 0 0 0 1022.0 1021.9 0.0
17/12:30am 15.0 15.7 12.1 83 1.6 CALM 0 0 0 0 1022.4 1022.3 0.0
17/12:00am 16.3 16.0 12.7 79 2.0 S 6 9 3 5 1022.6 1022.5 0.0
 
Date/Time
EDT
Temp
°C
App
Temp
°C
Dew
Point
°C
Rel
Hum
%
Delta-T
°C
Wind Press
QNH
hPa
Press
MSL
hPa
Rain since
9am
mm
Dir  Spd
km/h
Gust
km/h
Spd
kts
Gust
kts
16/11:30pm 16.9 15.2 12.6 76 2.4 W 13 15 7 8 1022.9 1022.8 0.0
16/11:00pm 17.1 16.2 12.6 75 2.5 NW 9 13 5 7 1023.2 1023.1 0.0
16/10:30pm 17.3 16.1 12.8 75 2.5 NW 11 15 6 8 1023.3 1023.2 0.0
16/10:00pm 17.2 15.9 12.5 74 2.6 NW 11 17 6 9 1023.3 1023.2 0.0
16/09:30pm 17.2 15.9 12.5 74 2.6 NNW 11 15 6 8 1023.3 1023.2 0.0
16/09:00pm 17.1 15.3 12.2 73 2.7 NNW 13 19 7 10 1023.3 1023.2 0.0
16/08:30pm 17.3 15.1 12.2 72 2.8 NNW 15 20 8 11 1023.2 1023.1 0.0
16/08:00pm 17.4 14.9 12.3 72 2.8 NNW 17 20 9 11 1023.1 1023.0 0.0
16/07:30pm 17.4 14.9 12.3 72 2.8 NNW 17 22 9 12 1022.9 1022.8 0.0
16/07:00pm 17.6 14.6 12.1 70 3.0 NNW 19 26 10 14 1022.6 1022.5 0.0
16/06:30pm 18.0 15.4 12.0 68 3.3 NNW 17 24 9 13 1022.4 1022.3 0.0
16/06:00pm 17.5 14.5 11.8 69 3.1 NNW 19 24 10 13 1022.4 1022.3 0.0
16/05:30pm 17.7 14.1 11.7 68 3.3 NNW 22 28 12 15 1022.5 1022.4 0.0
16/05:00pm 18.3 14.3 11.8 66 3.6 NNW 24 32 13 17 1022.6 1022.5 0.0
16/04:30pm 19.0 14.7 12.0 64 3.9 NNW 26 33 14 18 1022.9 1022.8 0.0
16/04:00pm 19.9 15.8 12.7 63 4.0 NNW 26 32 14 17 1023.0 1022.9 0.0
16/03:30pm 19.1 15.1 11.7 62 4.1 NNW 24 33 13 18 1023.1 1023.0 0.0
16/03:00pm 18.9 14.3 11.2 61 4.2 NNW 26 35 14 19 1023.2 1023.1 0.0

Other Formats:

Comma delimited format used in spreadsheet applications
http://www.bom.gov.au/fwo/IDT60801/IDT60801.95957.axf

JavaScript Object Notation format (JSON) in row-major order
http://www.bom.gov.au/fwo/IDT60801/IDT60801.95957.json